Time;durP1;ratioP1;P1;durP2;ratioP2;P2;SDS_P1;SDS_P2;PMS_P1;PMS_P2;Temp;Humidity;BMP_temperature;BMP_pressure;BME280_temperature;BME280_humidity;BME280_pressure;Samples;Min_cycle;Max_cycle;Signal;HPM_P1;HPM_P2
2022/08/04 00:00:33;;;;;;;31.73;12.07;;;;;;;17.21;58.36;101365.53;5012779;28;20029;-76
2022/08/04 00:03:10;;;;;;;21.17;12.10;;;;;;;17.12;59.00;101360.81;5013412;28;20042;-75
2022/08/04 00:05:46;;;;;;;21.98;12.15;;;;;;;17.09;58.93;101370.69;4998573;28;20220;-77
2022/08/04 00:08:40;;;;;;;26.77;11.70;;;;;;;17.17;58.72;101361.38;5008485;28;20056;-76
2022/08/04 00:11:08;;;;;;;21.80;11.90;;;;;;;17.05;59.02;101356.00;4996642;28;20056;-78
2022/08/04 00:13:41;;;;;;;31.08;12.80;;;;;;;17.03;59.24;101361.38;5014091;28;20496;-77
2022/08/04 00:16:09;;;;;;;31.15;11.98;;;;;;;17.18;58.80;101364.84;5018045;28;20033;-76
2022/08/04 00:18:49;;;;;;;29.45;11.57;;;;;;;17.13;58.82;101357.22;4997488;28;20093;-77
2022/08/04 00:21:17;;;;;;;28.00;12.20;;;;;;;17.15;58.79;101359.78;5011020;28;20450;-77
2022/08/04 00:23:44;;;;;;;28.42;12.63;;;;;;;17.16;58.78;101356.22;5011243;28;20050;-77
2022/08/04 00:26:10;;;;;;;31.52;13.57;;;;;;;17.14;58.90;101358.94;5007594;28;20385;-77
2022/08/04 00:28:37;;;;;;;20.88;10.48;;;;;;;17.12;58.76;101352.88;5010711;28;20049;-77
2022/08/04 00:31:09;;;;;;;22.90;12.50;;;;;;;17.08;59.18;101351.38;5016127;28;20052;-76
2022/08/04 00:33:36;;;;;;;26.63;12.50;;;;;;;17.12;59.02;101355.53;5009110;28;20180;-76
2022/08/04 00:36:02;;;;;;;26.45;13.27;;;;;;;16.95;59.43;101348.59;5010833;28;20068;-79
2022/08/04 00:38:29;;;;;;;29.77;14.45;;;;;;;17.10;59.08;101349.47;5012860;28;20510;-78
2022/08/04 00:41:29;;;;;;;29.05;13.00;;;;;;;17.01;59.14;101348.25;4995471;28;20021;-76
2022/08/04 00:44:23;;;;;;;30.75;13.05;;;;;;;16.96;59.55;101342.41;5013210;28;20133;-76
2022/08/04 00:47:07;;;;;;;29.50;14.52;;;;;;;16.97;59.42;101341.44;5011192;28;20045;-77
2022/08/04 00:50:08;;;;;;;29.10;15.27;;;;;;;16.96;59.32;101344.19;5024670;28;20056;-76
2022/08/04 00:52:52;;;;;;;42.28;15.15;;;;;;;16.86;59.71;101340.38;5007701;28;20607;-77
2022/08/04 00:55:24;;;;;;;30.58;14.60;;;;;;;16.85;59.81;101336.06;4994459;28;20119;-77
2022/08/04 00:57:56;;;;;;;32.42;15.93;;;;;;;16.69;60.39;101336.06;4995869;28;20737;-78
2022/08/04 01:00:21;;;;;;;31.15;14.00;;;;;;;16.88;59.83;101336.72;5010038;28;20025;-77
2022/08/04 01:02:47;;;;;;;29.80;15.60;;;;;;;16.79;60.08;101335.47;5010832;28;20706;-78
2022/08/04 01:05:34;;;;;;;39.40;15.77;;;;;;;16.74;60.25;101334.88;5010907;28;20044;-77
2022/08/04 01:08:03;;;;;;;25.45;13.75;;;;;;;16.87;59.85;101335.03;5006510;28;20104;-77
2022/08/04 01:10:52;;;;;;;38.80;15.18;;;;;;;16.86;59.75;101332.47;5025971;28;20087;-77
2022/08/04 01:13:33;;;;;;;32.88;16.27;;;;;;;16.78;60.18;101332.94;4992718;28;20087;-77
2022/08/04 01:16:01;;;;;;;33.50;15.60;;;;;;;16.77;60.13;101323.31;4996656;28;20029;-76
2022/08/04 01:18:51;;;;;;;36.20;15.60;;;;;;;16.80;59.75;101321.34;5006753;28;20034;-77
2022/08/04 01:21:29;;;;;;;33.53;13.55;;;;;;;16.83;59.81;101328.22;5010629;28;20037;-78
2022/08/04 01:24:26;;;;;;;24.13;14.18;;;;;;;16.91;59.92;101325.13;5006823;28;20128;-76
2022/08/04 01:27:25;;;;;;;38.42;15.30;;;;;;;16.86;59.87;101314.84;5009841;28;20046;-76
2022/08/04 01:29:57;;;;;;;27.67;13.57;;;;;;;16.91;59.92;101317.19;4994856;28;20029;-76
2022/08/04 01:32:31;;;;;;;28.25;15.38;;;;;;;16.87;59.62;101313.03;5011461;28;20045;-75
2022/08/04 01:35:35;;;;;;;33.25;14.18;;;;;;;16.92;59.67;101305.72;5009045;28;20096;-77
2022/08/04 01:38:05;;;;;;;30.30;13.93;;;;;;;16.97;59.60;101312.41;4993283;28;20059;-76
2022/08/04 01:40:33;;;;;;;28.23;14.48;;;;;;;16.96;59.39;101305.44;5008236;28;20317;-76
2022/08/04 01:43:02;;;;;;;36.00;15.23;;;;;;;16.98;59.43;101308.84;5006204;28;20049;-76
2022/08/04 01:45:28;;;;;;;27.70;13.73;;;;;;;16.97;59.48;101312.41;5009095;28;20088;-76
2022/08/04 01:47:55;;;;;;;30.60;15.32;;;;;;;16.95;59.40;101308.16;5015829;28;20049;-76
2022/08/04 01:50:22;;;;;;;31.67;15.68;;;;;;;16.97;59.11;101307.13;5017270;28;20491;-76
2022/08/04 01:52:52;;;;;;;23.73;14.05;;;;;;;16.94;59.24;101307.31;5011691;28;20148;-77
2022/08/04 01:55:18;;;;;;;26.30;12.85;;;;;;;16.97;59.22;101301.00;5010973;28;20089;-75
2022/08/04 01:57:47;;;;;;;25.85;13.27;;;;;;;16.96;59.26;101297.50;5012265;28;20797;-77
2022/08/04 02:00:21;;;;;;;29.50;14.40;;;;;;;16.93;59.23;101302.97;5018674;28;20156;-76
2022/08/04 02:02:48;;;;;;;35.58;16.08;;;;;;;16.89;59.52;101298.84;5013460;28;20061;-77
2022/08/04 02:05:16;;;;;;;34.22;14.48;;;;;;;17.00;59.11;101295.50;5030703;28;20026;-76
2022/08/04 02:07:54;;;;;;;30.88;13.63;;;;;;;17.01;59.02;101292.78;5013698;28;20063;-76
2022/08/04 02:10:26;;;;;;;30.60;13.85;;;;;;;16.97;58.92;101299.19;4999201;28;20048;-77
2022/08/04 02:13:11;;;;;;;24.30;14.10;;;;;;;16.97;58.99;101290.44;5011285;28;20092;-77
2022/08/04 02:16:04;;;;;;;28.77;13.93;;;;;;;16.93;59.23;101297.69;5017068;28;20036;-77
2022/08/04 02:18:51;;;;;;;25.70;14.15;;;;;;;16.92;58.92;101295.16;4990094;28;20107;-77
2022/08/04 02:21:19;;;;;;;31.23;15.38;;;;;;;16.81;59.03;101294.00;4991257;28;20037;-77
2022/08/04 02:23:52;;;;;;;22.77;12.93;;;;;;;16.77;59.10;101289.84;5013333;28;20057;-75
2022/08/04 02:26:24;;;;;;;23.17;13.40;;;;;;;16.77;58.96;101289.84;5012538;28;20041;-78
2022/08/04 02:29:15;;;;;;;25.33;13.70;;;;;;;16.74;59.11;101294.44;5013549;28;20398;-77
2022/08/04 02:31:44;;;;;;;23.58;12.75;;;;;;;16.71;58.98;101286.69;5010750;28;20096;-78
2022/08/04 02:34:24;;;;;;;28.58;12.65;;;;;;;16.71;59.04;101286.69;5002799;28;20492;-77
2022/08/04 02:36:51;;;;;;;24.08;13.15;;;;;;;16.67;58.78;101280.75;5013277;28;20053;-78
2022/08/04 02:39:19;;;;;;;23.38;12.40;;;;;;;16.68;59.03;101290.34;5019172;28;20056;-77
2022/08/04 02:41:46;;;;;;;27.73;12.10;;;;;;;16.66;59.16;101289.59;5014405;28;20044;-76
2022/08/04 02:44:13;;;;;;;26.85;13.20;;;;;;;16.61;59.14;101281.94;5013403;28;20029;-77
2022/08/04 02:46:40;;;;;;;29.85;12.65;;;;;;;16.60;59.13;101284.69;5012603;28;20038;-77
2022/08/04 02:49:08;;;;;;;26.30;14.48;;;;;;;16.58;58.98;101281.31;4998556;28;20029;-76
2022/08/04 02:51:39;;;;;;;19.70;11.05;;;;;;;16.63;58.86;101284.50;4997811;28;20044;-77
2022/08/04 02:54:05;;;;;;;29.88;13.55;;;;;;;16.63;58.90;101289.78;5015483;28;20575;-77
2022/08/04 02:56:33;;;;;;;28.35;12.65;;;;;;;16.58;59.05;101281.31;4987790;28;20446;-77
2022/08/04 02:59:00;;;;;;;21.23;12.20;;;;;;;16.62;59.08;101283.66;5034494;28;20076;-76
2022/08/04 03:01:26;;;;;;;29.20;11.52;;;;;;;16.57;59.04;101277.78;5022955;28;20572;-77
2022/08/04 03:04:10;;;;;;;29.27;14.88;;;;;;;16.57;59.12;101279.59;4998822;28;20030;-76
2022/08/04 03:07:05;;;;;;;26.50;14.60;;;;;;;16.56;58.95;101275.25;5010870;28;20041;-79
2022/08/04 03:10:02;;;;;;;24.40;12.85;;;;;;;16.55;59.17;101269.09;5015882;28;20025;-79
2022/08/04 03:12:36;;;;;;;16.42;10.23;;;;;;;16.62;58.71;101273.09;4995069;28;20133;-78
2022/08/04 03:15:35;;;;;;;22.23;11.57;;;;;;;16.60;58.87;101263.59;5015762;28;20034;-79
2022/08/04 03:18:38;;;;;;;28.45;12.85;;;;;;;16.59;59.01;101264.50;5010695;28;20044;-78
2022/08/04 03:21:18;;;;;;;19.83;11.55;;;;;;;16.53;59.19;101259.59;5007379;28;20026;-78
2022/08/04 03:24:06;;;;;;;21.65;11.50;;;;;;;16.62;58.82;101262.56;5009422;28;20050;-78
2022/08/04 03:26:49;;;;;;;24.63;12.60;;;;;;;16.59;58.96;101261.88;5017322;28;20033;-76
2022/08/04 03:29:54;;;;;;;22.33;12.70;;;;;;;16.63;58.96;101266.88;5016853;28;20026;-77
2022/08/04 03:32:42;;;;;;;21.70;12.88;;;;;;;16.59;58.76;101259.22;5032851;28;20068;-77
2022/08/04 03:35:26;;;;;;;22.98;11.82;;;;;;;16.59;59.09;101260.06;4996103;28;20033;-76
2022/08/04 03:38:10;;;;;;;27.70;11.85;;;;;;;16.66;58.66;101259.72;5001600;28;20045;-78
2022/08/04 03:41:01;;;;;;;20.65;10.43;;;;;;;16.73;58.35;101251.34;5038277;28;20030;-80
2022/08/04 03:44:15;;;;;;;27.05;12.70;;;;;;;16.82;58.29;101253.47;4992847;28;20110;-79
2022/08/04 03:46:54;;;;;;;21.13;10.70;;;;;;;16.82;58.01;101242.91;5029257;28;20060;-79
2022/08/04 03:49:40;;;;;;;21.27;10.00;;;;;;;16.81;57.96;101250.91;5016220;28;20036;-77
2022/08/04 03:55:42;;;;;;;21.05;11.10;;;;;;;16.78;57.85;101245.84;5015885;28;20060;-75
2022/08/04 03:58:45;;;;;;;20.08;11.82;;;;;;;16.72;58.04;101246.16;5019194;28;20057;-78
2022/08/04 04:01:36;;;;;;;19.70;11.90;;;;;;;16.72;58.35;101236.44;4997953;28;20430;-77
2022/08/04 04:04:32;;;;;;;22.42;12.48;;;;;;;16.72;58.40;101239.09;5010105;28;20037;-77
2022/08/04 04:07:45;;;;;;;25.30;13.88;;;;;;;16.77;58.59;101236.19;5013249;28;20056;-76
2022/08/04 04:10:35;;;;;;;22.63;12.82;;;;;;;16.82;58.46;101235.00;5011015;28;20112;-76
2022/08/04 04:13:25;;;;;;;25.08;12.32;;;;;;;16.87;58.32;101231.19;5005878;28;20049;-78
2022/08/04 04:16:11;;;;;;;22.67;12.50;;;;;;;16.89;58.08;101226.69;5014591;28;20033;-77
2022/08/04 04:18:43;;;;;;;26.17;13.27;;;;;;;17.01;58.06;101233.84;5024999;28;20044;-75
2022/08/04 04:21:17;;;;;;;;;;;;;;;17.05;57.90;101227.44;5013920;28;20095;-77
2022/08/04 04:24:01;;;;;;;30.20;11.82;;;;;;;17.11;57.98;101232.31;5008849;28;20481;-78
2022/08/04 04:26:53;;;;;;;26.13;13.63;;;;;;;17.18;57.90;101228.38;5013267;28;20154;-76
2022/08/04 04:29:46;;;;;;;22.23;12.55;;;;;;;17.27;57.51;101220.81;5025158;28;20099;-76
2022/08/04 04:32:18;;;;;;;21.63;12.20;;;;;;;17.25;57.77;101226.22;4991003;28;20061;-76
2022/08/04 04:35:02;;;;;;;20.15;13.20;;;;;;;17.40;57.53;101221.72;5016354;28;20087;-77
2022/08/04 04:37:36;;;;;;;27.33;13.02;;;;;;;17.45;57.22;101219.66;5010096;28;20080;-78
2022/08/04 04:40:12;;;;;;;22.10;12.48;;;;;;;17.40;57.39;101219.09;4994816;28;20044;-75
2022/08/04 04:43:05;;;;;;;25.80;11.85;;;;;;;17.45;57.30;101224.94;4992718;28;20049;-77
2022/08/04 04:45:49;;;;;;;21.38;11.65;;;;;;;17.68;57.16;101217.38;5015551;28;20037;-77
2022/08/04 04:48:29;;;;;;;18.27;11.57;;;;;;;17.76;56.64;101213.28;5007726;28;20038;-75
2022/08/04 04:51:01;;;;;;;25.13;12.10;;;;;;;17.75;56.27;101211.56;5008914;28;20034;-77
2022/08/04 04:53:26;;;;;;;;;;;;;;;17.74;56.45;101215.16;5013634;28;20041;-76
2022/08/04 04:56:28;;;;;;;25.90;12.77;;;;;;;17.65;56.32;101213.97;5013472;28;20096;-76
2022/08/04 04:58:57;;;;;;;20.75;11.88;;;;;;;17.79;56.60;101218.34;5007749;28;20050;-76
2022/08/04 05:01:56;;;;;;;29.10;12.82;;;;;;;17.96;55.91;101216.38;5012224;28;20030;-76
2022/08/04 05:04:41;;;;;;;17.75;9.80;;;;;;;18.12;55.87;101216.22;5007168;28;20045;-76
2022/08/04 05:07:35;;;;;;;20.17;12.52;;;;;;;18.17;55.57;101212.31;5007686;28;20046;-76
2022/08/04 05:10:26;;;;;;;22.70;9.95;;;;;;;18.47;55.40;101213.88;5010421;28;20475;-76
2022/08/04 05:13:07;;;;;;;22.02;10.45;;;;;;;18.61;54.34;101220.91;5009912;28;20465;-76
2022/08/04 05:15:36;;;;;;;31.77;17.38;;;;;;;18.79;54.57;101221.41;5009653;28;20034;-76
2022/08/04 05:18:04;;;;;;;16.02;9.70;;;;;;;18.82;53.70;101218.53;5011546;28;20033;-77
2022/08/04 05:20:36;;;;;;;29.90;10.65;;;;;;;18.96;53.71;101214.97;5013640;28;20503;-76
2022/08/04 05:23:14;;;;;;;17.55;9.93;;;;;;;18.92;53.73;101213.47;5010529;28;20052;-75
2022/08/04 05:25:54;;;;;;;19.10;11.38;;;;;;;19.08;53.43;101211.47;5008548;28;20065;-76
2022/08/04 05:28:25;;;;;;;18.90;10.27;;;;;;;19.84;52.20;101214.84;5023545;28;20057;-75
2022/08/04 05:31:15;;;;;;;30.52;12.98;;;;;;;20.35;51.09;101211.03;5008084;28;20766;-75
2022/08/04 05:34:08;;;;;;;21.05;8.13;;;;;;;20.38;50.09;101209.00;4996152;28;20045;-75
2022/08/04 05:36:40;;;;;;;17.92;7.28;;;;;;;21.33;49.01;101209.53;5008176;28;20037;-76
2022/08/04 05:39:11;;;;;;;18.60;8.93;;;;;;;22.75;45.67;101209.28;5012554;28;20057;-77
2022/08/04 05:41:38;;;;;;;;;;;;;;;23.98;41.65;101208.16;5007367;28;20042;-77
2022/08/04 05:44:06;;;;;;;13.98;6.40;;;;;;;25.37;38.61;101195.88;5024942;28;20087;-77
2022/08/04 05:46:32;;;;;;;14.80;6.72;;;;;;;25.75;36.88;101194.78;5014645;28;20037;-76
2022/08/04 05:48:57;;;;;;;20.27;7.22;;;;;;;25.93;37.04;101199.28;5014393;28;20112;-76
2022/08/04 05:51:24;;;;;;;14.20;6.95;;;;;;;26.63;36.42;101189.44;5008293;28;20095;-76
2022/08/04 05:53:51;;;;;;;14.43;5.50;;;;;;;27.53;34.59;101186.19;5008063;28;20037;-76
2022/08/04 05:56:17;;;;;;;12.80;5.10;;;;;;;28.08;33.97;101198.16;5014097;28;20033;-75
2022/08/04 05:58:45;;;;;;;14.60;5.53;;;;;;;29.05;31.60;101190.81;5013231;28;20037;-76
2022/08/04 06:01:11;;;;;;;10.60;4.93;;;;;;;29.88;30.43;101183.06;5005532;28;20507;-76
2022/08/04 06:03:38;;;;;;;13.82;5.55;;;;;;;29.66;30.28;101185.63;5002114;28;20050;-75
2022/08/04 06:06:06;;;;;;;10.90;3.92;;;;;;;30.20;29.41;101181.94;5009333;28;20163;-77
2022/08/04 06:08:31;;;;;;;12.93;5.82;;;;;;;30.52;28.68;101179.91;5010635;28;20053;-75
2022/08/04 06:11:03;;;;;;;8.90;3.97;;;;;;;30.30;29.17;101187.88;5007227;28;20615;-77
2022/08/04 06:13:32;;;;;;;12.07;4.85;;;;;;;30.10;29.29;101192.16;5008094;28;20077;-76
2022/08/04 06:15:59;;;;;;;15.38;5.53;;;;;;;30.01;28.97;101182.44;5011726;28;20071;-78
2022/08/04 06:18:29;;;;;;;11.73;4.28;;;;;;;30.09;29.43;101183.22;4991785;28;20034;-77
2022/08/04 06:20:59;;;;;;;10.13;4.18;;;;;;;30.54;28.51;101181.38;5025334;28;20034;-76
2022/08/04 06:23:28;;;;;;;12.63;4.30;;;;;;;30.78;28.45;101177.59;5008046;28;20049;-76
2022/08/04 06:25:57;;;;;;;12.68;3.83;;;;;;;30.95;27.87;101186.28;5009976;28;20029;-75
2022/08/04 06:28:24;;;;;;;8.57;3.35;;;;;;;30.63;28.23;101184.03;5012455;28;20060;-77
2022/08/04 06:30:52;;;;;;;12.32;2.78;;;;;;;31.32;28.30;101180.91;5011118;28;20061;-78
2022/08/04 06:33:26;;;;;;;8.80;3.00;;;;;;;32.98;25.89;101192.09;4994225;28;20931;-76
2022/08/04 06:35:57;;;;;;;7.88;2.22;;;;;;;33.37;25.28;101185.13;5012014;28;20045;-78
2022/08/04 06:38:24;;;;;;;9.90;3.30;;;;;;;33.73;24.62;101189.38;5011077;28;20509;-76
2022/08/04 06:40:50;;;;;;;6.10;2.97;;;;;;;33.40;24.77;101184.72;5011641;28;20073;-77
2022/08/04 06:43:17;;;;;;;10.25;2.17;;;;;;;34.69;23.53;101186.91;5026328;28;20057;-78
2022/08/04 06:45:43;;;;;;;15.82;2.95;;;;;;;34.58;23.39;101186.75;5012804;28;20041;-77
2022/08/04 06:48:12;;;;;;;5.05;2.25;;;;;;;32.57;26.71;101187.53;5008001;28;20037;-77
2022/08/04 06:50:39;;;;;;;10.23;3.08;;;;;;;32.88;24.39;101186.22;5011390;28;20036;-77
2022/08/04 06:53:04;;;;;;;14.07;3.20;;;;;;;32.67;26.07;101185.28;4996247;28;20069;-79
2022/08/04 06:55:32;;;;;;;8.95;2.35;;;;;;;33.48;24.16;101181.81;5010869;28;20025;-77
2022/08/04 06:58:00;;;;;;;6.07;2.08;;;;;;;34.26;23.73;101175.75;4998716;28;20087;-79
2022/08/04 07:00:26;;;;;;;5.28;2.10;;;;;;;34.32;23.44;101174.91;5027133;28;20523;-79
2022/08/04 07:02:53;;;;;;;4.78;1.95;;;;;;;33.82;24.08;101171.84;5016087;28;20746;-77
2022/08/04 07:05:20;;;;;;;11.88;2.17;;;;;;;33.94;23.60;101164.72;5019851;28;20391;-77
2022/08/04 07:07:46;;;;;;;8.43;2.28;;;;;;;33.04;24.42;101166.94;5010682;28;20033;-78
2022/08/04 07:10:13;;;;;;;5.80;1.80;;;;;;;34.61;23.12;101164.59;5013998;28;20419;-77
2022/08/04 07:12:39;;;;;;;6.80;1.55;;;;;;;34.71;22.95;101166.84;5026951;28;20045;-76
2022/08/04 07:15:07;;;;;;;5.18;1.50;;;;;;;35.25;22.20;101166.38;5010134;28;20081;-77
2022/08/04 07:17:35;;;;;;;8.27;1.88;;;;;;;36.45;21.13;101161.72;5014820;28;20490;-78
2022/08/04 07:20:01;;;;;;;9.40;2.20;;;;;;;37.27;19.60;101166.72;4999581;28;20051;-78
2022/08/04 07:22:27;;;;;;;13.45;2.08;;;;;;;37.61;20.47;101161.56;5008115;28;20284;-76
2022/08/04 07:24:55;;;;;;;9.02;1.60;;;;;;;36.90;20.52;101166.84;5010854;28;20151;-77
2022/08/04 07:27:21;;;;;;;6.32;1.77;;;;;;;35.96;21.73;101158.94;5010467;28;20106;-77
2022/08/04 07:29:47;;;;;;;9.27;1.58;;;;;;;36.12;21.83;101161.03;5006524;28;20029;-78
2022/08/04 07:32:14;;;;;;;7.65;1.38;;;;;;;35.55;21.81;101154.88;4996158;28;20056;-77
2022/08/04 07:34:41;;;;;;;5.85;1.63;;;;;;;35.71;22.59;101159.75;4994333;28;20056;-77
2022/08/04 07:37:07;;;;;;;3.78;1.20;;;;;;;36.51;22.15;101153.47;5008166;28;20063;-76
2022/08/04 07:39:35;;;;;;;3.83;1.45;;;;;;;36.94;21.59;101157.97;4996186;28;20041;-77
2022/08/04 07:42:02;;;;;;;8.80;1.58;;;;;;;36.57;21.74;101156.38;5011935;28;20099;-77
2022/08/04 07:44:32;;;;;;;6.53;1.20;;;;;;;35.82;21.62;101154.66;5012327;28;20446;-78
2022/08/04 07:46:59;;;;;;;8.50;1.52;;;;;;;36.56;20.78;101154.69;5014062;28;20060;-77
2022/08/04 07:49:25;;;;;;;6.55;1.67;;;;;;;35.91;20.88;101153.31;5018748;28;20037;-76
2022/08/04 07:51:52;;;;;;;5.53;1.35;;;;;;;35.54;21.82;101152.41;4992631;28;20080;-76
2022/08/04 07:54:18;;;;;;;5.80;1.10;;;;;;;35.88;21.10;101145.59;5015902;28;20257;-78
2022/08/04 07:56:48;;;;;;;10.25;1.75;;;;;;;35.22;21.87;101139.66;4994679;28;20033;-77
2022/08/04 07:59:15;;;;;;;6.75;1.45;;;;;;;35.24;20.99;101137.50;5026714;28;20037;-76
2022/08/04 08:01:41;;;;;;;6.05;1.50;;;;;;;34.34;22.46;101142.16;5015719;28;20048;-76
2022/08/04 08:04:09;;;;;;;7.35;1.33;;;;;;;34.97;22.40;101139.56;5012627;28;20025;-76
2022/08/04 08:06:36;;;;;;;8.32;1.80;;;;;;;35.91;21.41;101142.44;5002879;28;20033;-76
2022/08/04 08:09:12;;;;;;;4.05;1.60;;;;;;;36.14;20.86;101139.06;5012628;28;20036;-77
2022/08/04 08:11:38;;;;;;;4.22;1.10;;;;;;;36.45;19.99;101138.09;5006627;28;20112;-75
2022/08/04 08:14:04;;;;;;;12.77;1.30;;;;;;;35.76;21.33;101128.31;4974704;28;1110847;-78
2022/08/04 08:16:32;;;;;;;7.20;1.27;;;;;;;34.79;21.77;101126.72;5011250;28;20037;-75
2022/08/04 08:18:59;;;;;;;5.97;1.08;;;;;;;34.88;22.35;101130.84;5015624;28;20036;-77
2022/08/04 08:21:25;;;;;;;8.77;1.95;;;;;;;35.14;21.74;101129.03;5024995;28;20079;-76
2022/08/04 08:23:51;;;;;;;4.82;1.08;;;;;;;35.24;21.81;101131.25;5015147;28;20049;-76
2022/08/04 08:26:16;;;;;;;6.15;1.33;;;;;;;37.16;20.58;101132.94;5024663;28;20092;-77
2022/08/04 08:28:42;;;;;;;5.05;1.23;;;;;;;37.61;19.83;101129.69;5021623;28;20030;-76
2022/08/04 08:31:07;;;;;;;6.13;1.80;;;;;;;38.67;18.57;101132.28;5010480;28;20546;-78
2022/08/04 08:33:33;;;;;;;8.25;1.17;;;;;;;38.54;18.36;101127.88;4998873;28;20529;-77
2022/08/04 08:36:05;;;;;;;9.25;1.50;;;;;;;38.55;19.58;101132.28;4982719;28;20409;-75
2022/08/04 08:38:39;;;;;;;7.40;1.30;;;;;;;38.27;18.53;101127.63;5000987;28;20558;-76
2022/08/04 08:41:34;;;;;;;5.30;0.95;;;;;;;36.66;19.63;101130.50;5010269;28;20041;-78
2022/08/04 08:44:38;;;;;;;6.72;1.55;;;;;;;36.36;19.70;101131.28;5005576;28;20052;-76
2022/08/04 08:47:32;;;;;;;8.10;1.73;;;;;;;36.70;19.92;101132.53;4952218;28;20060;-77
2022/08/04 08:50:21;;;;;;;3.10;1.17;;;;;;;36.69;20.10;101133.59;5008872;28;20175;-77
2022/08/04 08:53:11;;;;;;;3.85;0.82;;;;;;;36.73;20.25;101131.25;5018904;28;20049;-78
2022/08/04 08:56:19;;;;;;;8.77;1.80;;;;;;;36.99;19.84;101131.91;5007543;28;20030;-77
2022/08/04 08:58:59;;;;;;;3.42;1.33;;;;;;;37.65;19.02;101130.88;5008507;28;20779;-78
2022/08/04 09:01:59;;;;;;;9.02;1.27;;;;;;;37.19;20.30;101127.03;5021916;28;20084;-76
2022/08/04 09:05:03;;;;;;;7.60;1.45;;;;;;;36.92;21.01;101127.41;5008262;28;20052;-77
2022/08/04 09:07:53;;;;;;;5.05;1.60;;;;;;;37.50;19.61;101128.63;4968292;28;20068;-76
2022/08/04 09:10:43;;;;;;;7.33;2.10;;;;;;;35.45;21.79;101120.03;5013617;28;20040;-75
2022/08/04 09:13:23;;;;;;;8.10;1.58;;;;;;;35.09;21.94;101121.56;5012163;28;20069;-76
2022/08/04 09:16:01;;;;;;;7.60;1.27;;;;;;;36.58;20.55;101125.34;4998561;28;20049;-77
2022/08/04 09:18:40;;;;;;;8.52;1.83;;;;;;;35.38;21.21;101126.53;5013779;28;20100;-78
2022/08/04 09:21:17;;;;;;;6.68;1.85;;;;;;;35.63;21.16;101132.03;5002142;28;20056;-76
2022/08/04 09:24:02;;;;;;;3.47;1.42;;;;;;;34.38;23.09;101127.13;5026577;28;20707;-78
2022/08/04 09:26:43;;;;;;;4.57;1.30;;;;;;;35.79;22.55;101128.72;5002794;28;20797;-79
2022/08/04 09:29:18;;;;;;;;;;;;;;;34.58;23.54;101130.59;4992528;28;20052;-77
2022/08/04 09:32:01;;;;;;;5.45;1.60;;;;;;;33.69;25.03;101132.00;4990672;28;19917;-77
2022/08/04 09:34:39;;;;;;;10.13;3.00;;;;;;;33.23;25.14;101141.75;4975649;28;20038;-77
2022/08/04 09:37:19;;;;;;;5.57;1.70;;;;;;;33.69;24.64;101140.13;4997790;28;20094;-77
2022/08/04 09:40:15;;;;;;;5.13;1.13;;;;;;;33.60;24.65;101136.81;5006820;28;20152;-74
2022/08/04 09:42:47;;;;;;;6.30;1.48;;;;;;;32.87;25.11;101141.25;5007527;28;20774;-77
2022/08/04 09:45:28;;;;;;;7.38;1.67;;;;;;;32.93;25.20;101135.88;5010708;28;20017;-76
2022/08/04 09:48:04;;;;;;;4.10;1.33;;;;;;;32.86;25.86;101145.84;5010615;28;20053;-75
2022/08/04 09:50:36;;;;;;;7.32;1.88;;;;;;;33.75;25.04;101133.06;4995824;28;20115;-76
2022/08/04 09:53:40;;;;;;;9.35;1.75;;;;;;;32.98;25.53;101130.66;5008384;28;20041;-76
2022/08/04 09:56:17;;;;;;;4.78;1.75;;;;;;;33.16;25.99;101135.50;4992975;28;20033;-78
2022/08/04 09:58:45;;;;;;;6.13;2.78;;;;;;;33.62;24.76;101148.25;5011770;28;20049;-76
2022/08/04 10:01:21;;;;;;;9.80;2.38;;;;;;;32.84;25.14;101151.47;5006832;28;20060;-76
2022/08/04 10:04:01;;;;;;;5.28;1.55;;;;;;;33.38;24.76;101148.88;5008117;28;20121;-78
2022/08/04 10:06:53;;;;;;;;;;;;;;;33.79;25.10;101150.56;5010698;28;20445;-76
2022/08/04 10:09:49;;;;;;;12.60;1.98;;;;;;;33.53;26.46;101149.53;4985424;28;19925;-77
2022/08/04 10:12:23;;;;;;;9.70;2.38;;;;;;;33.27;27.07;101146.78;5015308;28;20045;-75
2022/08/04 10:14:55;;;;;;;7.88;2.72;;;;;;;33.20;26.12;101146.75;5014410;28;20728;-77
2022/08/04 10:17:39;;;;;;;5.63;1.85;;;;;;;33.04;26.72;101154.22;5014239;28;20056;-78
2022/08/04 10:20:18;;;;;;;6.50;2.47;;;;;;;32.80;26.20;101152.88;5013355;28;20133;-77
2022/08/04 10:22:53;;;;;;;9.45;1.98;;;;;;;32.84;26.35;101137.94;5002707;28;20060;-77
2022/08/04 10:25:37;;;;;;;8.15;2.28;;;;;;;33.13;25.81;101140.50;5003079;28;20103;-75
2022/08/04 10:28:08;;;;;;;12.60;3.70;;;;;;;32.45;26.32;101138.56;5003328;28;20049;-76
2022/08/04 10:30:38;;;;;;;8.10;2.83;;;;;;;33.65;25.72;101150.53;5015047;28;20041;-76
2022/08/04 10:33:37;;;;;;;6.57;2.97;;;;;;;33.02;25.98;101142.75;4995501;28;20343;-76
2022/08/04 10:36:07;;;;;;;6.90;1.58;;;;;;;32.46;26.52;101144.84;5001907;28;20037;-75
2022/08/04 10:38:45;;;;;;;7.20;2.00;;;;;;;32.24;25.86;101136.78;4998281;28;20049;-77
2022/08/04 10:41:17;;;;;;;9.65;2.22;;;;;;;32.73;25.36;101135.78;5012315;28;20067;-76
2022/08/04 10:43:58;;;;;;;10.90;2.38;;;;;;;32.51;25.54;101136.94;5013365;28;20773;-76
2022/08/04 10:46:45;;;;;;;;;;;;;;;31.68;27.14;101139.50;5002556;28;20040;-76
2022/08/04 10:49:22;;;;;;;4.38;1.58;;;;;;;32.37;26.75;101136.84;5014777;28;20070;-77
2022/08/04 10:51:58;;;;;;;6.43;1.77;;;;;;;32.64;24.66;101142.41;5013865;28;21971;-75
2022/08/04 10:54:52;;;;;;;6.80;2.00;;;;;;;32.68;24.44;101132.00;5017327;28;20519;-76
2022/08/04 10:57:28;;;;;;;5.43;1.20;;;;;;;33.37;24.03;101130.94;5028056;28;20048;-76
2022/08/04 11:00:01;;;;;;;4.53;1.73;;;;;;;33.91;24.26;101127.22;5020613;28;20522;-76
2022/08/04 11:02:36;;;;;;;5.43;1.40;;;;;;;33.74;23.17;101126.81;5016480;28;20049;-78
2022/08/04 11:05:18;;;;;;;2.92;1.10;;;;;;;32.95;23.27;101132.97;5011898;28;20082;-79
2022/08/04 11:07:47;;;;;;;5.50;1.25;;;;;;;33.36;23.13;101129.28;5014482;28;20042;-77
2022/08/04 11:10:16;;;;;;;5.50;1.75;;;;;;;33.96;22.03;101118.44;5019880;28;20032;-77
2022/08/04 11:12:44;;;;;;;5.30;1.13;;;;;;;33.85;23.28;101130.75;5019649;28;20049;-76
2022/08/04 11:15:15;;;;;;;5.82;1.42;;;;;;;33.93;22.84;101130.53;5012015;28;20105;-75
2022/08/04 11:17:45;;;;;;;9.30;1.23;;;;;;;34.04;22.64;101126.34;5011349;28;20041;-75
2022/08/04 11:20:32;;;;;;;4.38;0.85;;;;;;;34.46;21.41;101129.56;5004075;28;20783;-76
2022/08/04 11:23:16;;;;;;;6.68;1.98;;;;;;;34.06;22.53;101132.38;5013732;28;20076;-76
2022/08/04 11:26:06;;;;;;;5.60;1.00;;;;;;;34.22;22.37;101136.56;4992429;28;20057;-78
2022/08/04 11:28:45;;;;;;;6.47;1.48;;;;;;;33.25;23.75;101141.53;5009626;28;20041;-75
2022/08/04 11:31:29;;;;;;;8.68;1.20;;;;;;;33.90;22.75;101143.69;5014684;28;20036;-77
2022/08/04 11:34:14;;;;;;;6.18;1.52;;;;;;;33.11;22.78;101142.56;5016958;28;20381;-76
2022/08/04 11:37:30;;;;;;;5.53;1.08;;;;;;;32.62;23.82;101141.78;4994334;28;20103;-76
2022/08/04 11:40:02;;;;;;;9.30;1.17;;;;;;;33.29;23.83;101140.13;4984031;28;20045;-77
2022/08/04 11:42:36;;;;;;;4.95;0.95;;;;;;;33.28;24.19;101143.88;5021727;28;20053;-76
2022/08/04 11:45:14;;;;;;;5.30;1.30;;;;;;;32.24;24.06;101148.44;5021673;28;20071;-76
2022/08/04 11:47:56;;;;;;;9.93;1.25;;;;;;;31.42;25.21;101155.22;5030048;28;20055;-77
2022/08/04 11:50:40;;;;;;;4.25;1.20;;;;;;;32.88;22.94;101145.63;5022246;28;20029;-78
2022/08/04 11:53:07;;;;;;;3.83;0.70;;;;;;;32.89;23.33;101144.59;5030051;28;20491;-77
2022/08/04 11:55:35;;;;;;;5.65;1.00;;;;;;;33.22;23.83;101150.91;5000351;28;20684;-76
2022/08/04 11:58:01;;;;;;;5.47;1.08;;;;;;;33.73;23.59;101154.16;4998131;28;20045;-77
2022/08/04 12:00:30;;;;;;;5.90;1.13;;;;;;;34.41;22.40;101153.81;5016768;28;20641;-76
2022/08/04 12:03:10;;;;;;;5.68;1.25;;;;;;;33.66;24.23;101154.13;5018380;28;20037;-76
2022/08/04 12:05:57;;;;;;;6.10;2.17;;;;;;;32.46;27.17;101161.06;5022930;28;20025;-76